首页
METAR-TAF:

METAR-TAF

机场 :

华盛顿杜勒斯国际机场

华盛顿, 弗吉尼亚州, 美国

纬度: 38-56-05N, 经度: 077-26-51W, 海拔: 95米

当前天气观测

该预报发布于47分钟前的05:52 UTC
风速3节,风向南转西南
温度 21°C
湿度 100%
气压 1008 hPa
能見度: 16.1公里
少量云层高于800英尺
多云层高于6000英尺
多云层高于16000英尺
阴天层高于25000英尺

METAR: KIAD 210552Z 20003KT 10SM FEW008 BKN060 BKN160 OVC250 21/21 A2978 RMK AO2 SLP082 60026 T02110211 10211 20211 58007

时间: 02:39 (06:39 UTC)

预报

该预报发布于57分钟前的05:42 UTC
预报有效从21日的 06点(UTC)到 22日的 12点(UTC)
风速3节,风向多变
能見度: 10公里
散云层高于800英尺
多云层高于15000英尺
从 21日的 0800点(UTC)
风速3节,风向多变
能見度: 10公里
散云层高于800英尺
多云层高于2500英尺
短暂存在
从 21日的 08点(UTC)到 21日的 12点(UTC)
多云层高于800英尺
从 21日的 1400点(UTC)
风速7节,风向
能見度: 10公里
散云层高于5000英尺
多云层高于20000英尺
从 21日的 2100点(UTC)
风速8节,风向东北
能見度: 10公里
多云层高于5000英尺
阴天层高于20000英尺

TAF: KIAD 210542Z 2106/2212 VRB03KT P6SM SCT008 BKN150 FM210800 VRB03KT P6SM SCT008 BKN025 TEMPO 2108/2112 BKN008 FM211400 35007KT P6SM SCT050 BKN200 FM212100 04008KT P6SM BKN050 OVC200

超过4000个机场的气象观测和天气预报(METAR&TAF报告)。

可查询的气象台以黄色和红色小点在地图上表示。

将鼠标移到小点上方,可查看气象台名称。

然后点击查看天气观测和预报。

如需切换地图:点击带黑十字的绿色按钮放大地图;点击带横线的绿色按钮缩小地图;或者点击绿色箭头查看邻近地区的地图。


METAR-TAF: